sensor_id;sensor_type;location;lat;lon;timestamp;pressure;altitude;pressure_sealevel;temperature
64175;BMP280;50469;50.438;-119.202;2023-07-22T00:01:06;96615.59;;;38.03
64175;BMP280;50469;50.438;-119.202;2023-07-22T00:03:37;96610.38;;;37.97
64175;BMP280;50469;50.438;-119.202;2023-07-22T00:06:10;96613.56;;;37.43
64175;BMP280;50469;50.438;-119.202;2023-07-22T00:08:40;96596.59;;;36.80
64175;BMP280;50469;50.438;-119.202;2023-07-22T00:11:09;96601.31;;;36.54
64175;BMP280;50469;50.438;-119.202;2023-07-22T00:13:37;96594.72;;;37.43
64175;BMP280;50469;50.438;-119.202;2023-07-22T00:16:05;96601.28;;;37.48
64175;BMP280;50469;50.438;-119.202;2023-07-22T00:18:35;96590.19;;;37.61
64175;BMP280;50469;50.438;-119.202;2023-07-22T00:21:03;96596.66;;;37.41
64175;BMP280;50469;50.438;-119.202;2023-07-22T00:23:31;96594.41;;;37.25
64175;BMP280;50469;50.438;-119.202;2023-07-22T00:26:02;96596.47;;;37.13
64175;BMP280;50469;50.438;-119.202;2023-07-22T00:28:30;96590.38;;;37.52
64175;BMP280;50469;50.438;-119.202;2023-07-22T00:30:58;96592.47;;;37.77
64175;BMP280;50469;50.438;-119.202;2023-07-22T00:33:26;96586.50;;;37.10
64175;BMP280;50469;50.438;-119.202;2023-07-22T00:35:54;96570.94;;;36.37
64175;BMP280;50469;50.438;-119.202;2023-07-22T00:38:25;96571.69;;;36.04
64175;BMP280;50469;50.438;-119.202;2023-07-22T00:40:54;96568.22;;;37.07
64175;BMP280;50469;50.438;-119.202;2023-07-22T00:43:24;96572.31;;;37.06
64175;BMP280;50469;50.438;-119.202;2023-07-22T00:45:52;96574.66;;;37.58
64175;BMP280;50469;50.438;-119.202;2023-07-22T00:48:20;96574.84;;;37.74
64175;BMP280;50469;50.438;-119.202;2023-07-22T00:50:48;96574.56;;;36.28
64175;BMP280;50469;50.438;-119.202;2023-07-22T00:53:17;96575.38;;;36.18
64175;BMP280;50469;50.438;-119.202;2023-07-22T00:55:45;96578.25;;;36.65
64175;BMP280;50469;50.438;-119.202;2023-07-22T00:58:16;96594.66;;;36.83
64175;BMP280;50469;50.438;-119.202;2023-07-22T01:00:44;96586.38;;;37.20
64175;BMP280;50469;50.438;-119.202;2023-07-22T01:03:15;96605.78;;;37.29
64175;BMP280;50469;50.438;-119.202;2023-07-22T01:05:46;96601.44;;;36.68
64175;BMP280;50469;50.438;-119.202;2023-07-22T01:08:15;96596.97;;;36.30
64175;BMP280;50469;50.438;-119.202;2023-07-22T01:10:45;96598.03;;;36.25
64175;BMP280;50469;50.438;-119.202;2023-07-22T01:13:16;96597.69;;;36.30
64175;BMP280;50469;50.438;-119.202;2023-07-22T01:15:47;96594.41;;;35.89
64175;BMP280;50469;50.438;-119.202;2023-07-22T01:18:15;96603.47;;;35.89
64175;BMP280;50469;50.438;-119.202;2023-07-22T01:20:43;96602.81;;;36.01
64175;BMP280;50469;50.438;-119.202;2023-07-22T01:23:14;96598.53;;;35.88
64175;BMP280;50469;50.438;-119.202;2023-07-22T01:25:45;96592.72;;;35.74
64175;BMP280;50469;50.438;-119.202;2023-07-22T01:28:13;96597.13;;;35.77
64175;BMP280;50469;50.438;-119.202;2023-07-22T01:30:45;96605.25;;;36.06
64175;BMP280;50469;50.438;-119.202;2023-07-22T01:33:15;96637.09;;;36.03
64175;BMP280;50469;50.438;-119.202;2023-07-22T01:35:43;96674.44;;;35.46
64175;BMP280;50469;50.438;-119.202;2023-07-22T01:38:13;96679.91;;;34.16
64175;BMP280;50469;50.438;-119.202;2023-07-22T01:40:41;96695.19;;;33.78
64175;BMP280;50469;50.438;-119.202;2023-07-22T01:43:09;96748.88;;;32.83
64175;BMP280;50469;50.438;-119.202;2023-07-22T01:45:37;96783.13;;;26.58
64175;BMP280;50469;50.438;-119.202;2023-07-22T01:48:05;96896.66;;;21.06
64175;BMP280;50469;50.438;-119.202;2023-07-22T01:50:33;96864.00;;;21.06
64175;BMP280;50469;50.438;-119.202;2023-07-22T01:53:01;96828.75;;;22.91
64175;BMP280;50469;50.438;-119.202;2023-07-22T03:14:55;96755.53;;;22.78
64175;BMP280;50469;50.438;-119.202;2023-07-22T03:17:23;96755.00;;;22.51
64175;BMP280;50469;50.438;-119.202;2023-07-22T03:19:51;96755.75;;;22.57
64175;BMP280;50469;50.438;-119.202;2023-07-22T03:22:19;96767.41;;;22.47
64175;BMP280;50469;50.438;-119.202;2023-07-22T03:24:47;96766.16;;;22.53
64175;BMP280;50469;50.438;-119.202;2023-07-22T03:27:18;96762.47;;;22.68
64175;BMP280;50469;50.438;-119.202;2023-07-22T03:29:49;96756.03;;;22.82
64175;BMP280;50469;50.438;-119.202;2023-07-22T03:32:17;96750.56;;;22.82
64175;BMP280;50469;50.438;-119.202;2023-07-22T03:34:47;96736.19;;;22.70
64175;BMP280;50469;50.438;-119.202;2023-07-22T03:37:15;96742.63;;;22.45
64175;BMP280;50469;50.438;-119.202;2023-07-22T03:39:46;96744.81;;;22.18
64175;BMP280;50469;50.438;-119.202;2023-07-22T03:42:14;96751.28;;;22.37
64175;BMP280;50469;50.438;-119.202;2023-07-22T03:44:42;96759.25;;;22.63
64175;BMP280;50469;50.438;-119.202;2023-07-22T03:47:10;96770.84;;;22.30
64175;BMP280;50469;50.438;-119.202;2023-07-22T03:49:38;96767.31;;;22.13
64175;BMP280;50469;50.438;-119.202;2023-07-22T03:52:07;96772.59;;;22.39
64175;BMP280;50469;50.438;-119.202;2023-07-22T03:54:35;96777.59;;;22.41
64175;BMP280;50469;50.438;-119.202;2023-07-22T03:57:03;96782.25;;;22.18
64175;BMP280;50469;50.438;-119.202;2023-07-22T03:59:31;96783.69;;;22.07
64175;BMP280;50469;50.438;-119.202;2023-07-22T04:02:02;96790.41;;;22.18
64175;BMP280;50469;50.438;-119.202;2023-07-22T04:04:30;96790.19;;;22.21
64175;BMP280;50469;50.438;-119.202;2023-07-22T04:06:58;96790.84;;;22.05
64175;BMP280;50469;50.438;-119.202;2023-07-22T04:09:29;96795.22;;;21.74
64175;BMP280;50469;50.438;-119.202;2023-07-22T04:11:59;96798.59;;;22.18
64175;BMP280;50469;50.438;-119.202;2023-07-22T04:14:27;96800.22;;;21.93
64175;BMP280;50469;50.438;-119.202;2023-07-22T04:16:55;96805.97;;;22.00
64175;BMP280;50469;50.438;-119.202;2023-07-22T04:19:23;96801.88;;;21.73
64175;BMP280;50469;50.438;-119.202;2023-07-22T04:21:52;96796.78;;;21.49
64175;BMP280;50469;50.438;-119.202;2023-07-22T04:24:20;96809.53;;;21.69
64175;BMP280;50469;50.438;-119.202;2023-07-22T04:26:48;96795.91;;;21.69
64175;BMP280;50469;50.438;-119.202;2023-07-22T04:29:16;96798.13;;;21.65
64175;BMP280;50469;50.438;-119.202;2023-07-22T04:31:44;96799.84;;;21.68
64175;BMP280;50469;50.438;-119.202;2023-07-22T04:34:12;96806.28;;;20.70
64175;BMP280;50469;50.438;-119.202;2023-07-22T04:36:45;96804.50;;;20.93
64175;BMP280;50469;50.438;-119.202;2023-07-22T04:39:16;96801.59;;;21.28
64175;BMP280;50469;50.438;-119.202;2023-07-22T04:41:47;96811.94;;;20.66
64175;BMP280;50469;50.438;-119.202;2023-07-22T04:44:15;96812.75;;;20.99
64175;BMP280;50469;50.438;-119.202;2023-07-22T04:46:43;96809.19;;;21.18
64175;BMP280;50469;50.438;-119.202;2023-07-22T04:49:11;96808.06;;;21.05
64175;BMP280;50469;50.438;-119.202;2023-07-22T04:51:42;96808.66;;;21.14
64175;BMP280;50469;50.438;-119.202;2023-07-22T04:54:10;96813.66;;;21.22
64175;BMP280;50469;50.438;-119.202;2023-07-22T04:56:41;96812.84;;;21.47
64175;BMP280;50469;50.438;-119.202;2023-07-22T04:59:09;96807.03;;;21.28
64175;BMP280;50469;50.438;-119.202;2023-07-22T05:01:40;96815.81;;;20.86
64175;BMP280;50469;50.438;-119.202;2023-07-22T05:04:08;96813.22;;;20.97
64175;BMP280;50469;50.438;-119.202;2023-07-22T05:06:36;96817.13;;;20.90
64175;BMP280;50469;50.438;-119.202;2023-07-22T05:09:05;96820.53;;;20.59
64175;BMP280;50469;50.438;-119.202;2023-07-22T05:11:33;96821.97;;;20.81
64175;BMP280;50469;50.438;-119.202;2023-07-22T05:14:01;96828.44;;;20.57
64175;BMP280;50469;50.438;-119.202;2023-07-22T05:16:33;96826.97;;;20.88
64175;BMP280;50469;50.438;-119.202;2023-07-22T05:19:02;96825.06;;;20.68
64175;BMP280;50469;50.438;-119.202;2023-07-22T05:21:30;96830.34;;;20.77
64175;BMP280;50469;50.438;-119.202;2023-07-22T05:23:58;96834.28;;;20.76
64175;BMP280;50469;50.438;-119.202;2023-07-22T05:26:26;96834.94;;;20.65
64175;BMP280;50469;50.438;-119.202;2023-07-22T05:28:55;96829.00;;;20.67
64175;BMP280;50469;50.438;-119.202;2023-07-22T05:31:28;96828.06;;;20.70
64175;BMP280;50469;50.438;-119.202;2023-07-22T05:33:56;96834.44;;;20.67
64175;BMP280;50469;50.438;-119.202;2023-07-22T05:36:24;96826.88;;;20.77
64175;BMP280;50469;50.438;-119.202;2023-07-22T05:38:56;96827.66;;;20.57
64175;BMP280;50469;50.438;-119.202;2023-07-22T05:41:26;96829.03;;;20.47
64175;BMP280;50469;50.438;-119.202;2023-07-22T05:43:57;96828.28;;;20.26
64175;BMP280;50469;50.438;-119.202;2023-07-22T05:46:25;96824.69;;;20.14
64175;BMP280;50469;50.438;-119.202;2023-07-22T05:48:54;96825.88;;;19.72
64175;BMP280;50469;50.438;-119.202;2023-07-22T05:51:22;96826.72;;;19.99
64175;BMP280;50469;50.438;-119.202;2023-07-22T05:53:50;96827.75;;;20.21
64175;BMP280;50469;50.438;-119.202;2023-07-22T05:56:18;96819.88;;;20.24
64175;BMP280;50469;50.438;-119.202;2023-07-22T05:58:49;96828.38;;;20.31
64175;BMP280;50469;50.438;-119.202;2023-07-22T06:01:19;96838.34;;;19.99
64175;BMP280;50469;50.438;-119.202;2023-07-22T06:03:50;96835.44;;;20.03
64175;BMP280;50469;50.438;-119.202;2023-07-22T06:06:18;96839.44;;;20.07
64175;BMP280;50469;50.438;-119.202;2023-07-22T06:08:50;96845.41;;;20.11
64175;BMP280;50469;50.438;-119.202;2023-07-22T06:11:18;96847.69;;;19.98
64175;BMP280;50469;50.438;-119.202;2023-07-22T06:13:49;96846.44;;;20.14
64175;BMP280;50469;50.438;-119.202;2023-07-22T06:16:17;96856.44;;;20.23
64175;BMP280;50469;50.438;-119.202;2023-07-22T06:18:45;96854.84;;;20.16
64175;BMP280;50469;50.438;-119.202;2023-07-22T06:21:15;96858.75;;;20.09
64175;BMP280;50469;50.438;-119.202;2023-07-22T06:23:43;96857.03;;;19.91
64175;BMP280;50469;50.438;-119.202;2023-07-22T06:26:11;96863.63;;;20.05
64175;BMP280;50469;50.438;-119.202;2023-07-22T06:28:39;96860.09;;;19.99
64175;BMP280;50469;50.438;-119.202;2023-07-22T06:31:10;96858.47;;;19.72
64175;BMP280;50469;50.438;-119.202;2023-07-22T06:33:40;96863.00;;;19.95
64175;BMP280;50469;50.438;-119.202;2023-07-22T06:36:08;96863.00;;;19.81
64175;BMP280;50469;50.438;-119.202;2023-07-22T06:38:36;96866.78;;;19.83
64175;BMP280;50469;50.438;-119.202;2023-07-22T06:41:07;96867.88;;;19.12
64175;BMP280;50469;50.438;-119.202;2023-07-22T06:43:36;96865.16;;;19.27
64175;BMP280;50469;50.438;-119.202;2023-07-22T06:46:04;96879.28;;;19.01
64175;BMP280;50469;50.438;-119.202;2023-07-22T06:48:32;96863.09;;;19.36
64175;BMP280;50469;50.438;-119.202;2023-07-22T06:51:00;96869.50;;;19.54
64175;BMP280;50469;50.438;-119.202;2023-07-22T06:53:28;96874.84;;;19.63
64175;BMP280;50469;50.438;-119.202;2023-07-22T06:55:57;96878.44;;;19.10
64175;BMP280;50469;50.438;-119.202;2023-07-22T06:58:25;96878.16;;;19.08
64175;BMP280;50469;50.438;-119.202;2023-07-22T07:00:54;96873.28;;;19.12
64175;BMP280;50469;50.438;-119.202;2023-07-22T07:03:22;96875.94;;;18.82
64175;BMP280;50469;50.438;-119.202;2023-07-22T07:05:54;96870.91;;;19.05
64175;BMP280;50469;50.438;-119.202;2023-07-22T07:08:23;96867.47;;;18.89
64175;BMP280;50469;50.438;-119.202;2023-07-22T07:10:52;96871.03;;;19.10
64175;BMP280;50469;50.438;-119.202;2023-07-22T07:13:22;96871.31;;;18.97
64175;BMP280;50469;50.438;-119.202;2023-07-22T07:15:50;96870.19;;;19.04
64175;BMP280;50469;50.438;-119.202;2023-07-22T07:18:19;96875.22;;;18.58
64175;BMP280;50469;50.438;-119.202;2023-07-22T07:20:47;96875.53;;;19.13
64175;BMP280;50469;50.438;-119.202;2023-07-22T07:23:15;96883.19;;;19.00
64175;BMP280;50469;50.438;-119.202;2023-07-22T07:25:43;96889.34;;;19.00
64175;BMP280;50469;50.438;-119.202;2023-07-22T07:28:11;96886.09;;;18.96
64175;BMP280;50469;50.438;-119.202;2023-07-22T07:30:39;96887.75;;;19.09
64175;BMP280;50469;50.438;-119.202;2023-07-22T07:33:07;96891.22;;;18.94
64175;BMP280;50469;50.438;-119.202;2023-07-22T07:35:36;96894.66;;;18.56
64175;BMP280;50469;50.438;-119.202;2023-07-22T07:38:04;96891.53;;;18.24
64175;BMP280;50469;50.438;-119.202;2023-07-22T07:40:32;96892.06;;;18.38
64175;BMP280;50469;50.438;-119.202;2023-07-22T07:43:00;96891.75;;;18.45
64175;BMP280;50469;50.438;-119.202;2023-07-22T07:45:28;96902.91;;;18.04
64175;BMP280;50469;50.438;-119.202;2023-07-22T07:47:56;96899.63;;;18.00
64175;BMP280;50469;50.438;-119.202;2023-07-22T07:50:24;96904.84;;;17.71
64175;BMP280;50469;50.438;-119.202;2023-07-22T07:52:52;96899.91;;;18.12
64175;BMP280;50469;50.438;-119.202;2023-07-22T07:55:20;96905.38;;;17.93
64175;BMP280;50469;50.438;-119.202;2023-07-22T07:57:48;96909.47;;;18.22
64175;BMP280;50469;50.438;-119.202;2023-07-22T08:00:17;96908.44;;;18.19
64175;BMP280;50469;50.438;-119.202;2023-07-22T08:02:46;96911.38;;;18.30
64175;BMP280;50469;50.438;-119.202;2023-07-22T08:05:16;96909.06;;;18.38
64175;BMP280;50469;50.438;-119.202;2023-07-22T08:07:50;96912.63;;;18.20
64175;BMP280;50469;50.438;-119.202;2023-07-22T08:10:18;96911.88;;;18.20
64175;BMP280;50469;50.438;-119.202;2023-07-22T08:12:48;96911.28;;;18.25
64175;BMP280;50469;50.438;-119.202;2023-07-22T08:15:16;96913.31;;;18.06
64175;BMP280;50469;50.438;-119.202;2023-07-22T08:17:44;96899.97;;;17.93
64175;BMP280;50469;50.438;-119.202;2023-07-22T08:20:12;96910.00;;;17.69
64175;BMP280;50469;50.438;-119.202;2023-07-22T08:22:40;96919.94;;;17.53
64175;BMP280;50469;50.438;-119.202;2023-07-22T08:25:08;96910.03;;;17.32
64175;BMP280;50469;50.438;-119.202;2023-07-22T08:27:37;96914.13;;;17.18
64175;BMP280;50469;50.438;-119.202;2023-07-22T08:30:08;96917.72;;;17.33
64175;BMP280;50469;50.438;-119.202;2023-07-22T08:32:36;96917.41;;;17.13
64175;BMP280;50469;50.438;-119.202;2023-07-22T08:35:04;96913.50;;;16.77
64175;BMP280;50469;50.438;-119.202;2023-07-22T08:37:35;96909.88;;;17.26
64175;BMP280;50469;50.438;-119.202;2023-07-22T08:40:03;96900.53;;;17.36
64175;BMP280;50469;50.438;-119.202;2023-07-22T08:42:32;96905.09;;;17.40
64175;BMP280;50469;50.438;-119.202;2023-07-22T08:45:06;96912.75;;;17.13
64175;BMP280;50469;50.438;-119.202;2023-07-22T08:47:45;96914.69;;;17.31
64175;BMP280;50469;50.438;-119.202;2023-07-22T08:50:20;96920.69;;;17.35
64175;BMP280;50469;50.438;-119.202;2023-07-22T08:52:50;96910.50;;;17.12
64175;BMP280;50469;50.438;-119.202;2023-07-22T08:55:21;96906.75;;;17.19
64175;BMP280;50469;50.438;-119.202;2023-07-22T08:57:54;96912.91;;;17.01
64175;BMP280;50469;50.438;-119.202;2023-07-22T09:00:23;96920.28;;;17.19
64175;BMP280;50469;50.438;-119.202;2023-07-22T09:02:52;96922.06;;;17.22
64175;BMP280;50469;50.438;-119.202;2023-07-22T09:05:20;96925.38;;;17.17
64175;BMP280;50469;50.438;-119.202;2023-07-22T09:07:51;96919.50;;;17.36
64175;BMP280;50469;50.438;-119.202;2023-07-22T09:10:20;96923.41;;;17.35
64175;BMP280;50469;50.438;-119.202;2023-07-22T09:12:50;96914.53;;;17.07
64175;BMP280;50469;50.438;-119.202;2023-07-22T09:15:19;96927.31;;;17.25
64175;BMP280;50469;50.438;-119.202;2023-07-22T09:17:47;96929.25;;;17.25
64175;BMP280;50469;50.438;-119.202;2023-07-22T09:20:22;96929.13;;;17.28
64175;BMP280;50469;50.438;-119.202;2023-07-22T09:22:51;96932.00;;;17.34
64175;BMP280;50469;50.438;-119.202;2023-07-22T09:25:40;96941.53;;;16.61
64175;BMP280;50469;50.438;-119.202;2023-07-22T09:28:09;96943.06;;;16.31
64175;BMP280;50469;50.438;-119.202;2023-07-22T09:30:40;96939.78;;;16.36
64175;BMP280;50469;50.438;-119.202;2023-07-22T09:33:20;96937.59;;;16.62
64175;BMP280;50469;50.438;-119.202;2023-07-22T09:35:49;96944.69;;;16.78
64175;BMP280;50469;50.438;-119.202;2023-07-22T09:38:24;96940.06;;;16.79
64175;BMP280;50469;50.438;-119.202;2023-07-22T09:40:53;96937.06;;;16.86
64175;BMP280;50469;50.438;-119.202;2023-07-22T09:43:23;96945.34;;;16.82
64175;BMP280;50469;50.438;-119.202;2023-07-22T09:45:51;96937.81;;;16.96
64175;BMP280;50469;50.438;-119.202;2023-07-22T09:48:21;96942.63;;;16.92
64175;BMP280;50469;50.438;-119.202;2023-07-22T09:50:57;96941.13;;;16.90
64175;BMP280;50469;50.438;-119.202;2023-07-22T09:53:25;96947.56;;;16.75
64175;BMP280;50469;50.438;-119.202;2023-07-22T09:55:53;96949.34;;;16.68
64175;BMP280;50469;50.438;-119.202;2023-07-22T09:58:27;96960.75;;;16.63
64175;BMP280;50469;50.438;-119.202;2023-07-22T10:01:03;96963.16;;;16.21
64175;BMP280;50469;50.438;-119.202;2023-07-22T10:03:36;96960.53;;;16.39
64175;BMP280;50469;50.438;-119.202;2023-07-22T10:06:06;96969.84;;;16.07
64175;BMP280;50469;50.438;-119.202;2023-07-22T10:08:35;96960.34;;;15.59
64175;BMP280;50469;50.438;-119.202;2023-07-22T10:11:07;96967.34;;;15.47
64175;BMP280;50469;50.438;-119.202;2023-07-22T10:13:37;96965.41;;;15.91
64175;BMP280;50469;50.438;-119.202;2023-07-22T10:16:06;96969.16;;;15.94
64175;BMP280;50469;50.438;-119.202;2023-07-22T10:18:35;96974.25;;;16.23
64175;BMP280;50469;50.438;-119.202;2023-07-22T10:21:04;96972.09;;;16.40
64175;BMP280;50469;50.438;-119.202;2023-07-22T10:23:35;96978.44;;;15.49
64175;BMP280;50469;50.438;-119.202;2023-07-22T10:26:07;96977.25;;;15.02
64175;BMP280;50469;50.438;-119.202;2023-07-22T10:28:39;96973.38;;;15.51
64175;BMP280;50469;50.438;-119.202;2023-07-22T10:31:08;96976.63;;;15.46
64175;BMP280;50469;50.438;-119.202;2023-07-22T10:33:36;96971.59;;;15.35
64175;BMP280;50469;50.438;-119.202;2023-07-22T10:36:05;96973.66;;;15.53
64175;BMP280;50469;50.438;-119.202;2023-07-22T10:38:40;96976.25;;;15.79
64175;BMP280;50469;50.438;-119.202;2023-07-22T10:41:12;96978.44;;;15.93
64175;BMP280;50469;50.438;-119.202;2023-07-22T10:43:40;96977.81;;;16.11
64175;BMP280;50469;50.438;-119.202;2023-07-22T10:46:14;96983.66;;;15.87
64175;BMP280;50469;50.438;-119.202;2023-07-22T10:48:44;96985.97;;;15.98
64175;BMP280;50469;50.438;-119.202;2023-07-22T10:51:15;96982.22;;;16.27
64175;BMP280;50469;50.438;-119.202;2023-07-22T10:53:45;96987.88;;;16.19
64175;BMP280;50469;50.438;-119.202;2023-07-22T10:56:21;96976.03;;;16.17
64175;BMP280;50469;50.438;-119.202;2023-07-22T11:11:59;96984.03;;;15.77
64175;BMP280;50469;50.438;-119.202;2023-07-22T11:14:37;96985.97;;;15.54
64175;BMP280;50469;50.438;-119.202;2023-07-22T11:17:06;96996.16;;;15.37
64175;BMP280;50469;50.438;-119.202;2023-07-22T11:19:38;96996.03;;;15.54
64175;BMP280;50469;50.438;-119.202;2023-07-22T11:22:09;96993.66;;;15.78
64175;BMP280;50469;50.438;-119.202;2023-07-22T11:24:39;96983.72;;;15.74
64175;BMP280;50469;50.438;-119.202;2023-07-22T11:27:11;96983.28;;;15.54
64175;BMP280;50469;50.438;-119.202;2023-07-22T11:29:40;96988.19;;;15.68
64175;BMP280;50469;50.438;-119.202;2023-07-22T11:32:18;96990.53;;;15.79
64175;BMP280;50469;50.438;-119.202;2023-07-22T11:34:46;96987.72;;;15.70
64175;BMP280;50469;50.438;-119.202;2023-07-22T11:37:15;97002.16;;;15.98
64175;BMP280;50469;50.438;-119.202;2023-07-22T11:39:43;97001.56;;;16.25
64175;BMP280;50469;50.438;-119.202;2023-07-22T11:42:11;97001.75;;;15.78
64175;BMP280;50469;50.438;-119.202;2023-07-22T11:44:39;97008.63;;;15.57
64175;BMP280;50469;50.438;-119.202;2023-07-22T11:47:09;97013.91;;;15.60
64175;BMP280;50469;50.438;-119.202;2023-07-22T11:49:39;97018.16;;;15.48
64175;BMP280;50469;50.438;-119.202;2023-07-22T11:52:10;97027.50;;;15.22
64175;BMP280;50469;50.438;-119.202;2023-07-22T11:54:42;97022.34;;;15.02
64175;BMP280;50469;50.438;-119.202;2023-07-22T11:57:22;97032.88;;;15.22
64175;BMP280;50469;50.438;-119.202;2023-07-22T11:59:53;97022.31;;;15.40
64175;BMP280;50469;50.438;-119.202;2023-07-22T12:02:26;97025.63;;;15.44
64175;BMP280;50469;50.438;-119.202;2023-07-22T12:05:02;97023.88;;;15.50
64175;BMP280;50469;50.438;-119.202;2023-07-22T12:07:32;97029.03;;;15.23
64175;BMP280;50469;50.438;-119.202;2023-07-22T12:10:03;97034.13;;;14.95
64175;BMP280;50469;50.438;-119.202;2023-07-22T12:12:42;97031.97;;;15.03
64175;BMP280;50469;50.438;-119.202;2023-07-22T12:15:12;97035.38;;;15.29
64175;BMP280;50469;50.438;-119.202;2023-07-22T12:17:59;97038.28;;;15.35
64175;BMP280;50469;50.438;-119.202;2023-07-22T12:20:34;97033.72;;;15.44
64175;BMP280;50469;50.438;-119.202;2023-07-22T12:23:04;97039.88;;;15.45
64175;BMP280;50469;50.438;-119.202;2023-07-22T12:25:32;97039.81;;;15.23
64175;BMP280;50469;50.438;-119.202;2023-07-22T12:28:00;97041.19;;;15.40
64175;BMP280;50469;50.438;-119.202;2023-07-22T12:30:28;97037.28;;;15.41
64175;BMP280;50469;50.438;-119.202;2023-07-22T12:32:56;97041.69;;;15.48
64175;BMP280;50469;50.438;-119.202;2023-07-22T12:35:29;97040.81;;;15.51
64175;BMP280;50469;50.438;-119.202;2023-07-22T12:37:58;97042.22;;;15.56
64175;BMP280;50469;50.438;-119.202;2023-07-22T12:40:28;97046.78;;;15.46
64175;BMP280;50469;50.438;-119.202;2023-07-22T12:42:56;97044.88;;;15.21
64175;BMP280;50469;50.438;-119.202;2023-07-22T12:45:30;97054.25;;;15.16
64175;BMP280;50469;50.438;-119.202;2023-07-22T12:48:01;97059.63;;;15.42
64175;BMP280;50469;50.438;-119.202;2023-07-22T12:50:30;97061.28;;;15.61
64175;BMP280;50469;50.438;-119.202;2023-07-22T12:52:59;97060.13;;;15.62
64175;BMP280;50469;50.438;-119.202;2023-07-22T12:55:27;97053.56;;;15.85
64175;BMP280;50469;50.438;-119.202;2023-07-22T12:57:55;97067.09;;;15.72
64175;BMP280;50469;50.438;-119.202;2023-07-22T13:00:23;97068.03;;;15.79
64175;BMP280;50469;50.438;-119.202;2023-07-22T13:02:51;97066.22;;;15.75
64175;BMP280;50469;50.438;-119.202;2023-07-22T13:05:19;97078.91;;;15.88
64175;BMP280;50469;50.438;-119.202;2023-07-22T13:07:47;97077.00;;;16.10
64175;BMP280;50469;50.438;-119.202;2023-07-22T13:10:15;97077.41;;;16.09
64175;BMP280;50469;50.438;-119.202;2023-07-22T13:12:46;97080.25;;;16.05
64175;BMP280;50469;50.438;-119.202;2023-07-22T13:15:14;97088.72;;;16.16
64175;BMP280;50469;50.438;-119.202;2023-07-22T13:17:42;97089.47;;;16.39
64175;BMP280;50469;50.438;-119.202;2023-07-22T13:20:11;97089.78;;;16.72
64175;BMP280;50469;50.438;-119.202;2023-07-22T13:22:39;97089.13;;;17.76
64175;BMP280;50469;50.438;-119.202;2023-07-22T13:25:07;97100.34;;;18.39
64175;BMP280;50469;50.438;-119.202;2023-07-22T13:27:38;97102.88;;;18.85
64175;BMP280;50469;50.438;-119.202;2023-07-22T13:30:07;97104.06;;;19.17
64175;BMP280;50469;50.438;-119.202;2023-07-22T13:32:35;97112.00;;;19.30
64175;BMP280;50469;50.438;-119.202;2023-07-22T13:35:09;97120.56;;;18.71
64175;BMP280;50469;50.438;-119.202;2023-07-22T13:37:40;97119.78;;;19.76
64175;BMP280;50469;50.438;-119.202;2023-07-22T13:40:09;97116.19;;;19.79
64175;BMP280;50469;50.438;-119.202;2023-07-22T13:42:38;97125.06;;;21.04
64175;BMP280;50469;50.438;-119.202;2023-07-22T13:45:07;97134.50;;;21.44
64175;BMP280;50469;50.438;-119.202;2023-07-22T13:47:35;97136.13;;;21.56
64175;BMP280;50469;50.438;-119.202;2023-07-22T13:50:03;97132.00;;;22.50
64175;BMP280;50469;50.438;-119.202;2023-07-22T13:52:34;97130.25;;;21.42
64175;BMP280;50469;50.438;-119.202;2023-07-22T13:55:02;97136.63;;;22.06
64175;BMP280;50469;50.438;-119.202;2023-07-22T13:57:30;97129.09;;;21.96
64175;BMP280;50469;50.438;-119.202;2023-07-22T13:59:58;97129.19;;;22.07
64175;BMP280;50469;50.438;-119.202;2023-07-22T14:02:26;97122.53;;;23.25
64175;BMP280;50469;50.438;-119.202;2023-07-22T14:04:55;97123.78;;;23.41
64175;BMP280;50469;50.438;-119.202;2023-07-22T14:07:23;97133.44;;;22.77
64175;BMP280;50469;50.438;-119.202;2023-07-22T14:09:54;97132.50;;;25.49
64175;BMP280;50469;50.438;-119.202;2023-07-22T14:12:22;97115.41;;;22.16
64175;BMP280;50469;50.438;-119.202;2023-07-22T14:14:53;97117.69;;;21.71
64175;BMP280;50469;50.438;-119.202;2023-07-22T14:17:21;97118.44;;;21.72
64175;BMP280;50469;50.438;-119.202;2023-07-22T14:19:54;97115.53;;;20.93
64175;BMP280;50469;50.438;-119.202;2023-07-22T14:22:22;97123.53;;;21.84
64175;BMP280;50469;50.438;-119.202;2023-07-22T14:24:53;97120.22;;;21.13
64175;BMP280;50469;50.438;-119.202;2023-07-22T14:27:21;97139.75;;;20.91
64175;BMP280;50469;50.438;-119.202;2023-07-22T14:29:49;97130.78;;;21.67
64175;BMP280;50469;50.438;-119.202;2023-07-22T14:32:19;97137.75;;;21.27
64175;BMP280;50469;50.438;-119.202;2023-07-22T14:34:48;97132.91;;;22.35
64175;BMP280;50469;50.438;-119.202;2023-07-22T14:37:18;97146.03;;;24.67
64175;BMP280;50469;50.438;-119.202;2023-07-22T14:39:46;97145.53;;;26.39
64175;BMP280;50469;50.438;-119.202;2023-07-22T14:42:14;97151.19;;;28.83
64175;BMP280;50469;50.438;-119.202;2023-07-22T14:44:44;97156.75;;;29.51
64175;BMP280;50469;50.438;-119.202;2023-07-22T14:47:12;97152.75;;;28.12
64175;BMP280;50469;50.438;-119.202;2023-07-22T14:49:40;97162.63;;;27.18
64175;BMP280;50469;50.438;-119.202;2023-07-22T14:52:11;97165.75;;;27.09
64175;BMP280;50469;50.438;-119.202;2023-07-22T14:54:39;97156.75;;;27.65
64175;BMP280;50469;50.438;-119.202;2023-07-22T14:57:10;97155.94;;;27.14
64175;BMP280;50469;50.438;-119.202;2023-07-22T14:59:38;97160.59;;;29.00
64175;BMP280;50469;50.438;-119.202;2023-07-22T15:02:06;97169.91;;;29.79
64175;BMP280;50469;50.438;-119.202;2023-07-22T15:04:34;97167.84;;;29.79
64175;BMP280;50469;50.438;-119.202;2023-07-22T15:07:05;97176.66;;;30.48
64175;BMP280;50469;50.438;-119.202;2023-07-22T15:09:35;97177.41;;;30.85
64175;BMP280;50469;50.438;-119.202;2023-07-22T15:12:04;97185.78;;;30.35
64175;BMP280;50469;50.438;-119.202;2023-07-22T15:14:35;97185.13;;;30.50
64175;BMP280;50469;50.438;-119.202;2023-07-22T15:17:04;97172.16;;;30.09